sensor_id;sensor_type;location;lat;lon;timestamp;pressure;altitude;pressure_sealevel;temperature;humidity
11349;BME280;5729;43.570;27.826;2023-04-10T00:01:26;99351.25;;;8.08;100.00
11349;BME280;5729;43.570;27.826;2023-04-10T00:03:51;99347.66;;;8.03;100.00
11349;BME280;5729;43.570;27.826;2023-04-10T00:06:17;99351.81;;;8.01;100.00
11349;BME280;5729;43.570;27.826;2023-04-10T00:08:42;99344.28;;;7.94;100.00
11349;BME280;5729;43.570;27.826;2023-04-10T00:11:07;99341.16;;;7.92;100.00
11349;BME280;5729;43.570;27.826;2023-04-10T00:13:33;99347.25;;;7.81;100.00
11349;BME280;5729;43.570;27.826;2023-04-10T00:15:58;99341.69;;;7.86;100.00
11349;BME280;5729;43.570;27.826;2023-04-10T00:18:24;99339.44;;;7.76;100.00
11349;BME280;5729;43.570;27.826;2023-04-10T00:20:50;99334.91;;;7.68;100.00
11349;BME280;5729;43.570;27.826;2023-04-10T00:23:15;99337.84;;;7.42;100.00
11349;BME280;5729;43.570;27.826;2023-04-10T00:25:41;99327.31;;;7.37;100.00
11349;BME280;5729;43.570;27.826;2023-04-10T00:28:06;99329.53;;;7.35;100.00
11349;BME280;5729;43.570;27.826;2023-04-10T00:30:32;99329.94;;;7.24;100.00
11349;BME280;5729;43.570;27.826;2023-04-10T00:32:57;99321.31;;;6.98;100.00
11349;BME280;5729;43.570;27.826;2023-04-10T00:35:23;99325.59;;;6.90;100.00
11349;BME280;5729;43.570;27.826;2023-04-10T00:37:48;99321.72;;;6.88;100.00
11349;BME280;5729;43.570;27.826;2023-04-10T00:40:15;99322.53;;;6.80;100.00
11349;BME280;5729;43.570;27.826;2023-04-10T00:42:40;99316.91;;;6.73;100.00
11349;BME280;5729;43.570;27.826;2023-04-10T00:45:07;99320.22;;;6.70;100.00
11349;BME280;5729;43.570;27.826;2023-04-10T00:47:33;99319.06;;;6.79;100.00
11349;BME280;5729;43.570;27.826;2023-04-10T00:49:59;99313.38;;;6.81;100.00
11349;BME280;5729;43.570;27.826;2023-04-10T00:52:25;99319.13;;;6.71;100.00
11349;BME280;5729;43.570;27.826;2023-04-10T00:54:51;99311.03;;;6.79;100.00
11349;BME280;5729;43.570;27.826;2023-04-10T00:57:17;99308.63;;;6.86;100.00
11349;BME280;5729;43.570;27.826;2023-04-10T00:59:42;99311.88;;;6.92;100.00
11349;BME280;5729;43.570;27.826;2023-04-10T01:02:08;99304.31;;;6.94;100.00
11349;BME280;5729;43.570;27.826;2023-04-10T01:04:37;99301.88;;;7.01;100.00
11349;BME280;5729;43.570;27.826;2023-04-10T01:07:18;99300.13;;;7.05;100.00
11349;BME280;5729;43.570;27.826;2023-04-10T01:10:17;99293.22;;;7.04;100.00
11349;BME280;5729;43.570;27.826;2023-04-10T01:13:08;99296.13;;;7.11;100.00
11349;BME280;5729;43.570;27.826;2023-04-10T01:15:43;99291.91;;;7.10;100.00
11349;BME280;5729;43.570;27.826;2023-04-10T01:18:29;99272.09;;;7.03;100.00
11349;BME280;5729;43.570;27.826;2023-04-10T01:20:57;99277.78;;;7.01;100.00
11349;BME280;5729;43.570;27.826;2023-04-10T01:26:05;99293.59;;;7.15;100.00
11349;BME280;5729;43.570;27.826;2023-04-10T01:29:05;99291.50;;;7.20;100.00
11349;BME280;5729;43.570;27.826;2023-04-10T01:31:53;99285.38;;;7.20;100.00
11349;BME280;5729;43.570;27.826;2023-04-10T01:34:24;99290.72;;;7.20;100.00
11349;BME280;5729;43.570;27.826;2023-04-10T01:37:16;99291.28;;;7.25;100.00
11349;BME280;5729;43.570;27.826;2023-04-10T01:39:47;99290.84;;;7.23;100.00
11349;BME280;5729;43.570;27.826;2023-04-10T01:42:15;99290.00;;;7.11;100.00
11349;BME280;5729;43.570;27.826;2023-04-10T01:44:43;99292.81;;;7.14;100.00
11349;BME280;5729;43.570;27.826;2023-04-10T01:47:13;99294.69;;;7.14;100.00
11349;BME280;5729;43.570;27.826;2023-04-10T01:49:43;99291.84;;;6.98;100.00
11349;BME280;5729;43.570;27.826;2023-04-10T01:52:11;99295.31;;;6.99;100.00
11349;BME280;5729;43.570;27.826;2023-04-10T01:54:37;99280.34;;;6.98;100.00
11349;BME280;5729;43.570;27.826;2023-04-10T01:57:03;99289.28;;;7.02;100.00
11349;BME280;5729;43.570;27.826;2023-04-10T01:59:29;99294.19;;;7.00;100.00
11349;BME280;5729;43.570;27.826;2023-04-10T02:01:59;99287.91;;;6.96;100.00
11349;BME280;5729;43.570;27.826;2023-04-10T02:04:26;99274.06;;;6.93;100.00
11349;BME280;5729;43.570;27.826;2023-04-10T02:07:11;99279.88;;;6.96;100.00
11349;BME280;5729;43.570;27.826;2023-04-10T02:12:35;99273.59;;;6.91;100.00
11349;BME280;5729;43.570;27.826;2023-04-10T02:15:04;99275.44;;;7.00;100.00
11349;BME280;5729;43.570;27.826;2023-04-10T02:17:33;99272.09;;;7.03;100.00
11349;BME280;5729;43.570;27.826;2023-04-10T02:20:01;99271.38;;;6.93;100.00
11349;BME280;5729;43.570;27.826;2023-04-10T02:22:28;99275.63;;;6.95;100.00
11349;BME280;5729;43.570;27.826;2023-04-10T02:24:54;99267.69;;;6.77;100.00
11349;BME280;5729;43.570;27.826;2023-04-10T02:27:46;99271.91;;;6.87;100.00
11349;BME280;5729;43.570;27.826;2023-04-10T02:30:11;99258.91;;;6.77;100.00
11349;BME280;5729;43.570;27.826;2023-04-10T02:32:36;99277.06;;;6.92;100.00
11349;BME280;5729;43.570;27.826;2023-04-10T02:35:02;99271.78;;;6.83;100.00
11349;BME280;5729;43.570;27.826;2023-04-10T02:37:28;99276.59;;;6.90;100.00
11349;BME280;5729;43.570;27.826;2023-04-10T02:39:54;99267.66;;;6.86;100.00
11349;BME280;5729;43.570;27.826;2023-04-10T02:42:19;99274.97;;;6.77;100.00
11349;BME280;5729;43.570;27.826;2023-04-10T02:44:46;99266.47;;;6.75;100.00
11349;BME280;5729;43.570;27.826;2023-04-10T02:47:11;99274.53;;;6.75;100.00
11349;BME280;5729;43.570;27.826;2023-04-10T02:49:37;99267.31;;;6.67;100.00
11349;BME280;5729;43.570;27.826;2023-04-10T02:52:02;99265.47;;;6.59;100.00
11349;BME280;5729;43.570;27.826;2023-04-10T02:54:28;99269.16;;;6.45;100.00
11349;BME280;5729;43.570;27.826;2023-04-10T02:56:55;99260.72;;;6.35;100.00
11349;BME280;5729;43.570;27.826;2023-04-10T02:59:21;99259.56;;;6.44;100.00
11349;BME280;5729;43.570;27.826;2023-04-10T03:01:47;99264.28;;;6.47;100.00
11349;BME280;5729;43.570;27.826;2023-04-10T03:04:13;99259.56;;;6.44;100.00
11349;BME280;5729;43.570;27.826;2023-04-10T03:06:39;99263.03;;;6.45;100.00
11349;BME280;5729;43.570;27.826;2023-04-10T03:09:04;99269.00;;;6.50;100.00
11349;BME280;5729;43.570;27.826;2023-04-10T03:11:30;99266.41;;;6.33;100.00
11349;BME280;5729;43.570;27.826;2023-04-10T03:13:56;99249.44;;;6.29;100.00
11349;BME280;5729;43.570;27.826;2023-04-10T03:16:24;99268.13;;;6.38;100.00
11349;BME280;5729;43.570;27.826;2023-04-10T03:18:50;99257.41;;;6.38;100.00
11349;BME280;5729;43.570;27.826;2023-04-10T03:21:15;99261.66;;;6.39;100.00
11349;BME280;5729;43.570;27.826;2023-04-10T03:23:41;99254.88;;;6.41;100.00
11349;BME280;5729;43.570;27.826;2023-04-10T03:26:06;99252.28;;;6.24;100.00
11349;BME280;5729;43.570;27.826;2023-04-10T03:28:32;99250.53;;;6.28;100.00
11349;BME280;5729;43.570;27.826;2023-04-10T03:31:00;99260.00;;;6.26;100.00
11349;BME280;5729;43.570;27.826;2023-04-10T03:33:25;99269.66;;;6.18;100.00
11349;BME280;5729;43.570;27.826;2023-04-10T03:35:51;99266.59;;;6.28;100.00
11349;BME280;5729;43.570;27.826;2023-04-10T03:38:17;99268.91;;;6.38;100.00
11349;BME280;5729;43.570;27.826;2023-04-10T03:40:43;99265.44;;;6.38;100.00
11349;BME280;5729;43.570;27.826;2023-04-10T03:43:08;99256.88;;;6.44;100.00
11349;BME280;5729;43.570;27.826;2023-04-10T03:45:34;99265.72;;;6.45;100.00
11349;BME280;5729;43.570;27.826;2023-04-10T03:47:59;99257.25;;;6.34;100.00
11349;BME280;5729;43.570;27.826;2023-04-10T03:50:25;99259.44;;;6.41;100.00
11349;BME280;5729;43.570;27.826;2023-04-10T03:52:51;99260.09;;;6.38;100.00
11349;BME280;5729;43.570;27.826;2023-04-10T03:55:16;99258.19;;;6.38;100.00
11349;BME280;5729;43.570;27.826;2023-04-10T03:57:48;99264.03;;;6.40;100.00
11349;BME280;5729;43.570;27.826;2023-04-10T04:00:14;99258.00;;;6.43;100.00
11349;BME280;5729;43.570;27.826;2023-04-10T04:02:41;99260.47;;;6.28;100.00
11349;BME280;5729;43.570;27.826;2023-04-10T04:05:07;99243.94;;;6.26;100.00
11349;BME280;5729;43.570;27.826;2023-04-10T04:07:32;99253.09;;;6.45;100.00
11349;BME280;5729;43.570;27.826;2023-04-10T04:09:58;99259.06;;;6.51;100.00
11349;BME280;5729;43.570;27.826;2023-04-10T04:12:25;99254.84;;;6.21;100.00
11349;BME280;5729;43.570;27.826;2023-04-10T04:14:50;99239.53;;;6.21;100.00
11349;BME280;5729;43.570;27.826;2023-04-10T04:17:16;99243.66;;;6.48;100.00
11349;BME280;5729;43.570;27.826;2023-04-10T04:19:41;99256.66;;;6.58;100.00
11349;BME280;5729;43.570;27.826;2023-04-10T04:22:07;99256.53;;;6.54;100.00
11349;BME280;5729;43.570;27.826;2023-04-10T04:24:32;99262.16;;;6.62;100.00
11349;BME280;5729;43.570;27.826;2023-04-10T04:26:57;99259.72;;;6.69;100.00
11349;BME280;5729;43.570;27.826;2023-04-10T04:29:23;99257.97;;;6.73;100.00
11349;BME280;5729;43.570;27.826;2023-04-10T04:31:49;99263.97;;;6.70;100.00
11349;BME280;5729;43.570;27.826;2023-04-10T04:34:14;99261.91;;;6.75;100.00
11349;BME280;5729;43.570;27.826;2023-04-10T04:36:40;99259.88;;;6.72;100.00
11349;BME280;5729;43.570;27.826;2023-04-10T04:39:06;99268.88;;;6.88;100.00
11349;BME280;5729;43.570;27.826;2023-04-10T04:41:32;99265.75;;;7.07;100.00
11349;BME280;5729;43.570;27.826;2023-04-10T04:43:58;99270.97;;;7.24;100.00
11349;BME280;5729;43.570;27.826;2023-04-10T04:46:25;99268.59;;;7.44;100.00
11349;BME280;5729;43.570;27.826;2023-04-10T04:48:50;99263.59;;;7.54;100.00
11349;BME280;5729;43.570;27.826;2023-04-10T04:51:16;99269.53;;;7.72;100.00
11349;BME280;5729;43.570;27.826;2023-04-10T04:53:41;99264.44;;;7.91;100.00
11349;BME280;5729;43.570;27.826;2023-04-10T04:56:07;99273.97;;;8.01;100.00
11349;BME280;5729;43.570;27.826;2023-04-10T04:58:32;99273.97;;;8.25;100.00
11349;BME280;5729;43.570;27.826;2023-04-10T05:00:59;99268.88;;;8.32;100.00
11349;BME280;5729;43.570;27.826;2023-04-10T05:03:24;99268.94;;;8.60;100.00
11349;BME280;5729;43.570;27.826;2023-04-10T05:05:50;99260.84;;;8.85;100.00
11349;BME280;5729;43.570;27.826;2023-04-10T05:08:15;99256.16;;;9.09;100.00
11349;BME280;5729;43.570;27.826;2023-04-10T05:10:41;99247.78;;;9.27;100.00
11349;BME280;5729;43.570;27.826;2023-04-10T05:13:06;99249.66;;;9.38;100.00
11349;BME280;5729;43.570;27.826;2023-04-10T05:15:32;99252.50;;;9.58;100.00
11349;BME280;5729;43.570;27.826;2023-04-10T05:17:57;99248.00;;;9.77;100.00
11349;BME280;5729;43.570;27.826;2023-04-10T05:20:22;99256.75;;;9.59;100.00
11349;BME280;5729;43.570;27.826;2023-04-10T05:22:49;99246.44;;;9.76;100.00
11349;BME280;5729;43.570;27.826;2023-04-10T05:25:14;99257.00;;;10.16;100.00
11349;BME280;5729;43.570;27.826;2023-04-10T05:27:40;99248.63;;;10.18;100.00
11349;BME280;5729;43.570;27.826;2023-04-10T05:30:06;99257.13;;;10.04;100.00
11349;BME280;5729;43.570;27.826;2023-04-10T05:32:31;99241.06;;;9.92;100.00
11349;BME280;5729;43.570;27.826;2023-04-10T05:34:57;99253.66;;;10.19;100.00
11349;BME280;5729;43.570;27.826;2023-04-10T05:37:22;99254.50;;;10.08;100.00
11349;BME280;5729;43.570;27.826;2023-04-10T05:39:47;99261.97;;;10.30;100.00
11349;BME280;5729;43.570;27.826;2023-04-10T05:42:13;99262.66;;;10.43;100.00
11349;BME280;5729;43.570;27.826;2023-04-10T05:44:39;99257.22;;;10.24;100.00
11349;BME280;5729;43.570;27.826;2023-04-10T05:47:04;99263.25;;;10.52;100.00
11349;BME280;5729;43.570;27.826;2023-04-10T05:49:30;99243.56;;;10.67;100.00
11349;BME280;5729;43.570;27.826;2023-04-10T05:51:55;99255.84;;;10.84;100.00
11349;BME280;5729;43.570;27.826;2023-04-10T05:54:21;99259.16;;;10.93;100.00
11349;BME280;5729;43.570;27.826;2023-04-10T05:56:46;99256.31;;;11.05;100.00
11349;BME280;5729;43.570;27.826;2023-04-10T05:59:12;99253.41;;;11.14;100.00
11349;BME280;5729;43.570;27.826;2023-04-10T06:01:38;99268.28;;;10.88;100.00
11349;BME280;5729;43.570;27.826;2023-04-10T06:04:04;99254.75;;;11.04;100.00
11349;BME280;5729;43.570;27.826;2023-04-10T06:06:30;99242.53;;;11.10;100.00
11349;BME280;5729;43.570;27.826;2023-04-10T06:08:55;99262.91;;;11.27;100.00
11349;BME280;5729;43.570;27.826;2023-04-10T06:11:21;99265.47;;;11.20;100.00
11349;BME280;5729;43.570;27.826;2023-04-10T06:13:46;99258.22;;;11.05;100.00
11349;BME280;5729;43.570;27.826;2023-04-10T06:16:12;99262.75;;;11.01;100.00
11349;BME280;5729;43.570;27.826;2023-04-10T06:18:39;99261.34;;;10.87;100.00
11349;BME280;5729;43.570;27.826;2023-04-10T06:21:05;99257.19;;;10.74;100.00
11349;BME280;5729;43.570;27.826;2023-04-10T06:23:31;99251.63;;;10.83;100.00
11349;BME280;5729;43.570;27.826;2023-04-10T06:25:57;99254.94;;;10.76;100.00
11349;BME280;5729;43.570;27.826;2023-04-10T06:28:22;99238.81;;;10.61;100.00
11349;BME280;5729;43.570;27.826;2023-04-10T06:30:48;99254.28;;;10.64;100.00
11349;BME280;5729;43.570;27.826;2023-04-10T06:33:13;99256.84;;;10.76;100.00
11349;BME280;5729;43.570;27.826;2023-04-10T06:35:38;99252.66;;;10.78;100.00
11349;BME280;5729;43.570;27.826;2023-04-10T06:38:04;99248.06;;;10.79;100.00
11349;BME280;5729;43.570;27.826;2023-04-10T06:40:30;99252.47;;;10.87;100.00
11349;BME280;5729;43.570;27.826;2023-04-10T06:42:58;99258.28;;;10.89;100.00
11349;BME280;5729;43.570;27.826;2023-04-10T06:45:23;99265.19;;;11.06;100.00
11349;BME280;5729;43.570;27.826;2023-04-10T06:47:49;99266.31;;;11.05;100.00
11349;BME280;5729;43.570;27.826;2023-04-10T06:50:14;99266.94;;;11.17;100.00
11349;BME280;5729;43.570;27.826;2023-04-10T06:52:40;99267.88;;;11.25;100.00
11349;BME280;5729;43.570;27.826;2023-04-10T06:55:06;99268.38;;;11.31;100.00
11349;BME280;5729;43.570;27.826;2023-04-10T06:57:31;99265.59;;;11.08;100.00
11349;BME280;5729;43.570;27.826;2023-04-10T06:59:57;99268.50;;;10.99;100.00
11349;BME280;5729;43.570;27.826;2023-04-10T07:02:22;99266.31;;;11.05;100.00
11349;BME280;5729;43.570;27.826;2023-04-10T07:04:48;99265.41;;;11.16;100.00
11349;BME280;5729;43.570;27.826;2023-04-10T07:07:15;99272.00;;;11.19;100.00
11349;BME280;5729;43.570;27.826;2023-04-10T07:09:42;99270.44;;;11.37;100.00
11349;BME280;5729;43.570;27.826;2023-04-10T07:12:07;99269.34;;;11.61;100.00
11349;BME280;5729;43.570;27.826;2023-04-10T07:14:33;99265.25;;;11.90;100.00
11349;BME280;5729;43.570;27.826;2023-04-10T07:17:00;99278.16;;;12.00;100.00
11349;BME280;5729;43.570;27.826;2023-04-10T07:19:25;99276.97;;;12.47;100.00
11349;BME280;5729;43.570;27.826;2023-04-10T07:21:51;99278.41;;;12.67;100.00
11349;BME280;5729;43.570;27.826;2023-04-10T07:24:17;99285.66;;;12.89;100.00
11349;BME280;5729;43.570;27.826;2023-04-10T07:26:43;99280.03;;;13.01;100.00
11349;BME280;5729;43.570;27.826;2023-04-10T07:29:09;99281.88;;;13.24;100.00
11349;BME280;5729;43.570;27.826;2023-04-10T07:31:35;99268.78;;;13.63;100.00
11349;BME280;5729;43.570;27.826;2023-04-10T07:34:03;99276.47;;;13.98;100.00
11349;BME280;5729;43.570;27.826;2023-04-10T07:36:29;99261.38;;;13.97;100.00
11349;BME280;5729;43.570;27.826;2023-04-10T07:38:55;99270.59;;;13.92;100.00
11349;BME280;5729;43.570;27.826;2023-04-10T07:41:20;99253.56;;;13.88;100.00
11349;BME280;5729;43.570;27.826;2023-04-10T07:43:46;99273.69;;;13.91;100.00
11349;BME280;5729;43.570;27.826;2023-04-10T07:46:12;99257.59;;;14.08;100.00
11349;BME280;5729;43.570;27.826;2023-04-10T07:48:38;99270.47;;;13.78;100.00
11349;BME280;5729;43.570;27.826;2023-04-10T07:51:03;99263.84;;;13.72;100.00
11349;BME280;5729;43.570;27.826;2023-04-10T07:53:30;99263.03;;;14.12;100.00
11349;BME280;5729;43.570;27.826;2023-04-10T07:55:56;99260.47;;;14.30;100.00
11349;BME280;5729;43.570;27.826;2023-04-10T07:58:22;99261.81;;;14.53;100.00
11349;BME280;5729;43.570;27.826;2023-04-10T08:00:47;99259.94;;;14.61;100.00
11349;BME280;5729;43.570;27.826;2023-04-10T08:03:14;99257.66;;;14.70;100.00
11349;BME280;5729;43.570;27.826;2023-04-10T08:05:39;99253.00;;;14.71;100.00
11349;BME280;5729;43.570;27.826;2023-04-10T08:08:05;99264.69;;;14.78;100.00
11349;BME280;5729;43.570;27.826;2023-04-10T08:10:30;99268.28;;;15.00;100.00
11349;BME280;5729;43.570;27.826;2023-04-10T08:12:56;99261.72;;;15.08;100.00
11349;BME280;5729;43.570;27.826;2023-04-10T08:15:21;99256.88;;;15.64;100.00
11349;BME280;5729;43.570;27.826;2023-04-10T08:17:47;99251.47;;;16.06;99.88
11349;BME280;5729;43.570;27.826;2023-04-10T08:20:12;99251.09;;;16.32;97.46
11349;BME280;5729;43.570;27.826;2023-04-10T08:22:38;99243.72;;;16.01;96.17
11349;BME280;5729;43.570;27.826;2023-04-10T08:25:04;99246.44;;;15.94;97.82
11349;BME280;5729;43.570;27.826;2023-04-10T08:27:29;99244.47;;;16.30;98.53
11349;BME280;5729;43.570;27.826;2023-04-10T08:29:55;99242.50;;;16.62;92.57
11349;BME280;5729;43.570;27.826;2023-04-10T08:32:21;99240.56;;;16.70;90.78
11349;BME280;5729;43.570;27.826;2023-04-10T08:34:46;99245.28;;;16.23;96.02
11349;BME280;5729;43.570;27.826;2023-04-10T08:37:11;99244.06;;;15.71;100.00
11349;BME280;5729;43.570;27.826;2023-04-10T08:39:40;99226.63;;;15.93;100.00
11349;BME280;5729;43.570;27.826;2023-04-10T08:42:05;99234.78;;;15.90;100.00
11349;BME280;5729;43.570;27.826;2023-04-10T08:44:31;99231.28;;;16.36;100.00
11349;BME280;5729;43.570;27.826;2023-04-10T08:47:01;99233.41;;;17.15;99.26
11349;BME280;5729;43.570;27.826;2023-04-10T08:52:06;99230.59;;;17.29;91.26
11349;BME280;5729;43.570;27.826;2023-04-10T08:54:34;99224.47;;;17.11;92.16
11349;BME280;5729;43.570;27.826;2023-04-10T08:57:01;99220.28;;;16.89;96.04
11349;BME280;5729;43.570;27.826;2023-04-10T08:59:28;99220.72;;;16.73;97.43
11349;BME280;5729;43.570;27.826;2023-04-10T09:01:55;99224.25;;;16.42;100.00
11349;BME280;5729;43.570;27.826;2023-04-10T09:04:25;99217.69;;;16.36;100.00
11349;BME280;5729;43.570;27.826;2023-04-10T09:06:51;99225.84;;;16.18;100.00
11349;BME280;5729;43.570;27.826;2023-04-10T09:09:17;99218.47;;;16.04;100.00
11349;BME280;5729;43.570;27.826;2023-04-10T09:14:23;99223.50;;;15.84;100.00
11349;BME280;5729;43.570;27.826;2023-04-10T09:16:52;99207.19;;;16.06;100.00
11349;BME280;5729;43.570;27.826;2023-04-10T09:19:31;99203.72;;;16.02;100.00
11349;BME280;5729;43.570;27.826;2023-04-10T09:21:57;99202.53;;;16.34;100.00
11349;BME280;5729;43.570;27.826;2023-04-10T09:24:23;99203.66;;;16.37;100.00
11349;BME280;5729;43.570;27.826;2023-04-10T09:26:49;99206.03;;;16.24;100.00
11349;BME280;5729;43.570;27.826;2023-04-10T09:29:15;99204.88;;;16.22;100.00
11349;BME280;5729;43.570;27.826;2023-04-10T09:31:44;99204.09;;;16.04;100.00
11349;BME280;5729;43.570;27.826;2023-04-10T09:34:13;99196.34;;;16.02;100.00
11349;BME280;5729;43.570;27.826;2023-04-10T09:36:58;99195.47;;;16.65;100.00
11349;BME280;5729;43.570;27.826;2023-04-10T09:39:36;99186.13;;;16.66;96.91
11349;BME280;5729;43.570;27.826;2023-04-10T09:42:07;99191.34;;;17.20;93.75
11349;BME280;5729;43.570;27.826;2023-04-10T09:44:35;99192.84;;;17.28;89.82
11349;BME280;5729;43.570;27.826;2023-04-10T09:49:52;99176.34;;;17.53;81.69
11349;BME280;5729;43.570;27.826;2023-04-10T09:52:25;99178.31;;;16.76;84.82
11349;BME280;5729;43.570;27.826;2023-04-10T09:54:57;99163.09;;;16.89;87.99
11349;BME280;5729;43.570;27.826;2023-04-10T09:57:25;99156.84;;;16.95;85.22
11349;BME280;5729;43.570;27.826;2023-04-10T09:59:52;99160.88;;;16.62;84.00
11349;BME280;5729;43.570;27.826;2023-04-10T10:02:20;99159.28;;;16.61;84.06
11349;BME280;5729;43.570;27.826;2023-04-10T10:04:47;99158.97;;;16.42;86.10
11349;BME280;5729;43.570;27.826;2023-04-10T10:07:19;99162.09;;;16.29;87.75
11349;BME280;5729;43.570;27.826;2023-04-10T10:09:46;99141.84;;;16.52;86.01
11349;BME280;5729;43.570;27.826;2023-04-10T10:12:14;99154.16;;;16.85;83.40
11349;BME280;5729;43.570;27.826;2023-04-10T10:14:53;99156.06;;;16.98;81.13
11349;BME280;5729;43.570;27.826;2023-04-10T10:17:23;99138.34;;;17.31;80.75
11349;BME280;5729;43.570;27.826;2023-04-10T10:20:07;99145.72;;;17.86;76.12
11349;BME280;5729;43.570;27.826;2023-04-10T10:22:34;99121.47;;;17.51;77.26
11349;BME280;5729;43.570;27.826;2023-04-10T10:25:01;99137.66;;;17.72;77.35
11349;BME280;5729;43.570;27.826;2023-04-10T10:27:27;99130.22;;;18.58;71.22
11349;BME280;5729;43.570;27.826;2023-04-10T10:29:59;99141.50;;;18.57;68.78
11349;BME280;5729;43.570;27.826;2023-04-10T10:32:29;99132.38;;;19.01;68.91
11349;BME280;5729;43.570;27.826;2023-04-10T10:34:56;99129.75;;;18.63;69.10
11349;BME280;5729;43.570;27.826;2023-04-10T10:37:22;99139.47;;;17.89;74.63
11349;BME280;5729;43.570;27.826;2023-04-10T10:45:21;99116.38;;;16.97;85.17
11349;BME280;5729;43.570;27.826;2023-04-10T10:47:53;99122.34;;;16.78;88.63
11349;BME280;5729;43.570;27.826;2023-04-10T10:50:19;99114.63;;;16.48;93.08
11349;BME280;5729;43.570;27.826;2023-04-10T10:52:49;99102.97;;;16.55;94.43
11349;BME280;5729;43.570;27.826;2023-04-10T10:55:27;99105.22;;;16.74;91.01
11349;BME280;5729;43.570;27.826;2023-04-10T10:57:58;99100.75;;;16.25;89.60
11349;BME280;5729;43.570;27.826;2023-04-10T11:00:26;99102.72;;;16.14;91.68
11349;BME280;5729;43.570;27.826;2023-04-10T11:08:16;99092.44;;;16.67;84.27
11349;BME280;5729;43.570;27.826;2023-04-10T11:11:02;99079.13;;;16.87;80.63
11349;BME280;5729;43.570;27.826;2023-04-10T11:13:36;99081.25;;;17.17;76.62
11349;BME280;5729;43.570;27.826;2023-04-10T11:16:04;99075.22;;;17.43;71.57
11349;BME280;5729;43.570;27.826;2023-04-10T11:28:58;99052.06;;;17.66;63.68
11349;BME280;5729;43.570;27.826;2023-04-10T11:31:24;99054.59;;;17.39;62.41
11349;BME280;5729;43.570;27.826;2023-04-10T11:34:03;99059.81;;;17.23;63.14
11349;BME280;5729;43.570;27.826;2023-04-10T11:36:29;99055.03;;;17.37;64.86
11349;BME280;5729;43.570;27.826;2023-04-10T11:39:21;99051.97;;;17.28;64.80
11349;BME280;5729;43.570;27.826;2023-04-10T11:41:48;99044.16;;;17.34;63.00
11349;BME280;5729;43.570;27.826;2023-04-10T11:46:42;99037.91;;;17.82;60.90
11349;BME280;5729;43.570;27.826;2023-04-10T11:49:09;99026.91;;;17.89;59.37
11349;BME280;5729;43.570;27.826;2023-04-10T11:51:39;99038.03;;;18.05;59.58
11349;BME280;5729;43.570;27.826;2023-04-10T11:56:40;99023.75;;;18.28;56.10
11349;BME280;5729;43.570;27.826;2023-04-10T11:59:06;99024.69;;;18.14;56.46
11349;BME280;5729;43.570;27.826;2023-04-10T12:01:36;99032.63;;;17.64;58.09
11349;BME280;5729;43.570;27.826;2023-04-10T12:04:02;99032.19;;;17.21;59.88
11349;BME280;5729;43.570;27.826;2023-04-10T12:06:27;99027.91;;;17.23;60.75
11349;BME280;5729;43.570;27.826;2023-04-10T12:08:54;99030.59;;;16.72;62.42
11349;BME280;5729;43.570;27.826;2023-04-10T12:11:21;99026.13;;;16.33;65.61
11349;BME280;5729;43.570;27.826;2023-04-10T12:13:50;99025.75;;;16.31;68.45
11349;BME280;5729;43.570;27.826;2023-04-10T12:16:16;99027.25;;;16.43;70.20
11349;BME280;5729;43.570;27.826;2023-04-10T12:18:42;99027.25;;;16.39;70.59
11349;BME280;5729;43.570;27.826;2023-04-10T12:21:09;99017.53;;;16.42;72.44
11349;BME280;5729;43.570;27.826;2023-04-10T12:23:36;99009.09;;;16.15;74.29
11349;BME280;5729;43.570;27.826;2023-04-10T12:26:16;99007.47;;;16.28;72.23
11349;BME280;5729;43.570;27.826;2023-04-10T12:29:02;99002.88;;;16.18;70.02
11349;BME280;5729;43.570;27.826;2023-04-10T12:31:31;99004.06;;;16.13;69.13
11349;BME280;5729;43.570;27.826;2023-04-10T12:33:58;99008.44;;;15.82;70.29
11349;BME280;5729;43.570;27.826;2023-04-10T12:36:26;99007.72;;;15.36;75.38
11349;BME280;5729;43.570;27.826;2023-04-10T12:38:55;98998.41;;;15.61;74.96
11349;BME280;5729;43.570;27.826;2023-04-10T12:41:23;98997.59;;;15.79;71.31
11349;BME280;5729;43.570;27.826;2023-04-10T12:43:50;98985.13;;;15.88;70.78
11349;BME280;5729;43.570;27.826;2023-04-10T12:46:26;98947.13;;;15.71;69.74
11349;BME280;5729;43.570;27.826;2023-04-10T12:48:53;98981.16;;;16.07;70.63
11349;BME280;5729;43.570;27.826;2023-04-10T12:51:19;98977.22;;;16.22;70.91
11349;BME280;5729;43.570;27.826;2023-04-10T12:53:45;98984.53;;;16.36;70.08
11349;BME280;5729;43.570;27.826;2023-04-10T12:56:11;98981.31;;;16.52;78.42
11349;BME280;5729;43.570;27.826;2023-04-10T12:58:38;98968.63;;;16.31;86.80
11349;BME280;5729;43.570;27.826;2023-04-10T13:01:05;98968.00;;;15.98;91.94
11349;BME280;5729;43.570;27.826;2023-04-10T13:03:36;98960.19;;;16.08;93.57
11349;BME280;5729;43.570;27.826;2023-04-10T13:06:04;98961.75;;;16.09;93.41
11349;BME280;5729;43.570;27.826;2023-04-10T13:08:30;98957.44;;;16.15;94.26
11349;BME280;5729;43.570;27.826;2023-04-10T13:10:57;98960.16;;;16.15;95.20
11349;BME280;5729;43.570;27.826;2023-04-10T13:13:27;98943.44;;;16.23;92.37
11349;BME280;5729;43.570;27.826;2023-04-10T13:15:54;98944.47;;;16.40;90.04
11349;BME280;5729;43.570;27.826;2023-04-10T13:18:20;98945.47;;;16.71;86.56
11349;BME280;5729;43.570;27.826;2023-04-10T13:20:45;98943.41;;;16.86;85.03
11349;BME280;5729;43.570;27.826;2023-04-10T13:23:10;98947.19;;;17.02;83.45
11349;BME280;5729;43.570;27.826;2023-04-10T13:25:37;98945.34;;;16.89;81.70
11349;BME280;5729;43.570;27.826;2023-04-10T13:28:07;98942.44;;;17.06;78.24
11349;BME280;5729;43.570;27.826;2023-04-10T13:30:37;98936.69;;;16.97;78.13
11349;BME280;5729;43.570;27.826;2023-04-10T13:33:02;98946.28;;;16.68;80.34
11349;BME280;5729;43.570;27.826;2023-04-10T13:35:28;98946.69;;;16.66;80.18
11349;BME280;5729;43.570;27.826;2023-04-10T13:37:53;98947.44;;;16.67;81.59
11349;BME280;5729;43.570;27.826;2023-04-10T13:40:19;98951.34;;;16.62;82.81